createdAt,value
2022-12-31T00:01:27.094Z,50.15
2022-12-31T00:03:57.188Z,46.25
2022-12-31T00:06:33.180Z,45.38
2022-12-31T00:09:01.664Z,44.10
2022-12-31T00:11:29.883Z,43.47
2022-12-31T00:13:57.703Z,37.97
2022-12-31T00:16:25.994Z,38.33
2022-12-31T00:18:55.272Z,40.45
2022-12-31T00:21:22.879Z,40.45
2022-12-31T00:23:49.830Z,39.33
2022-12-31T00:26:22.625Z,40.25
2022-12-31T00:28:49.515Z,39.22
2022-12-31T00:31:19.357Z,38.78
2022-12-31T00:33:46.786Z,36.28
2022-12-31T00:36:16.440Z,37.40
2022-12-31T00:38:45.556Z,33.55
2022-12-31T00:41:13.908Z,31.48
2022-12-31T00:43:41.104Z,33.15
2022-12-31T00:46:09.428Z,35.15
2022-12-31T00:48:36.639Z,37.70
2022-12-31T00:51:05.937Z,38.08
2022-12-31T00:53:33.442Z,42.90
2022-12-31T00:56:06.931Z,41.88
2022-12-31T00:58:35.546Z,44.53
2022-12-31T01:01:16.464Z,45.73
2022-12-31T01:03:43.858Z,48.45
2022-12-31T01:06:11.161Z,51.03
2022-12-31T01:08:38.289Z,50.03
2022-12-31T01:11:22.448Z,50.28
2022-12-31T01:14:17.124Z,50.70
2022-12-31T01:16:47.678Z,53.50
2022-12-31T01:19:29.303Z,52.45
2022-12-31T01:21:57.246Z,53.35
2022-12-31T01:24:24.894Z,53.85
2022-12-31T01:26:52.021Z,53.47
2022-12-31T01:29:19.098Z,52.05
2022-12-31T01:31:46.058Z,51.15
2022-12-31T01:34:12.995Z,49.88
2022-12-31T01:36:40.188Z,51.83
2022-12-31T01:39:08.868Z,49.95
2022-12-31T01:41:39.298Z,51.65
2022-12-31T01:44:12.405Z,50.15
2022-12-31T01:46:47.352Z,47.33
2022-12-31T01:49:23.818Z,50.00
2022-12-31T01:52:05.196Z,48.72
2022-12-31T01:54:35.441Z,46.97
2022-12-31T01:57:03.712Z,45.67
2022-12-31T01:59:31.715Z,46.20
2022-12-31T02:01:59.993Z,43.55
2022-12-31T02:04:28.431Z,45.37
2022-12-31T02:07:00.126Z,43.65
2022-12-31T02:09:27.149Z,42.58
2022-12-31T02:11:54.116Z,41.95
2022-12-31T02:14:25.871Z,39.20
2022-12-31T02:17:08.435Z,38.35
2022-12-31T02:19:57.001Z,38.00
2022-12-31T02:22:42.715Z,36.58
2022-12-31T02:25:12.778Z,33.10
2022-12-31T02:27:42.616Z,36.13
2022-12-31T02:30:21.147Z,33.00
2022-12-31T02:33:02.641Z,32.95
2022-12-31T02:35:49.635Z,33.72
2022-12-31T02:38:39.327Z,34.35
2022-12-31T02:41:11.524Z,35.38
2022-12-31T02:43:46.799Z,36.63
2022-12-31T02:46:29.801Z,35.05
2022-12-31T02:49:10.974Z,36.70
2022-12-31T02:52:06.149Z,36.20
2022-12-31T02:54:51.526Z,36.13
2022-12-31T02:57:51.763Z,32.83
2022-12-31T03:00:37.688Z,35.10
2022-12-31T03:03:06.950Z,33.83
2022-12-31T03:05:39.447Z,35.13
2022-12-31T03:08:06.425Z,35.85
2022-12-31T03:10:33.515Z,33.95
2022-12-31T03:13:00.746Z,34.80
2022-12-31T03:15:30.809Z,34.25
2022-12-31T03:17:57.769Z,35.45
2022-12-31T03:20:48.454Z,33.90
2022-12-31T03:23:19.773Z,34.50
2022-12-31T03:25:47.174Z,34.08
2022-12-31T03:28:17.476Z,32.60
2022-12-31T03:30:48.101Z,33.70
2022-12-31T03:33:15.466Z,34.10
2022-12-31T03:35:44.292Z,34.17
2022-12-31T03:38:29.617Z,32.25
2022-12-31T03:40:56.624Z,34.20
2022-12-31T03:43:23.518Z,32.38
2022-12-31T03:45:53.167Z,32.55
2022-12-31T03:48:22.796Z,30.60
2022-12-31T03:50:50.662Z,33.83
2022-12-31T03:53:18.030Z,35.33
2022-12-31T03:55:45.054Z,35.90
2022-12-31T03:58:12.014Z,35.22
2022-12-31T04:00:39.211Z,37.00
2022-12-31T04:03:06.471Z,36.03
2022-12-31T04:05:33.798Z,39.28
2022-12-31T04:08:00.799Z,39.35
2022-12-31T04:10:27.837Z,35.72
2022-12-31T04:12:54.734Z,37.35
2022-12-31T04:15:21.945Z,38.75
2022-12-31T04:17:49.116Z,40.10
2022-12-31T04:20:16.837Z,39.83
2022-12-31T04:22:44.327Z,38.90
2022-12-31T04:25:11.799Z,39.40
2022-12-31T04:27:40.778Z,40.55
2022-12-31T04:30:09.899Z,40.03
2022-12-31T04:32:36.810Z,40.95
2022-12-31T04:35:04.157Z,41.67
2022-12-31T04:37:31.032Z,40.22
2022-12-31T04:40:03.551Z,38.50
2022-12-31T04:42:32.667Z,40.83
2022-12-31T04:44:59.495Z,39.22
2022-12-31T04:47:26.492Z,41.65
2022-12-31T04:49:53.423Z,39.53
2022-12-31T04:52:20.515Z,39.80
2022-12-31T04:54:47.412Z,39.70
2022-12-31T04:57:14.445Z,41.67
2022-12-31T04:59:41.335Z,39.22
2022-12-31T05:02:08.556Z,41.03
2022-12-31T05:04:35.633Z,40.13
2022-12-31T05:07:02.639Z,40.05
2022-12-31T05:09:29.851Z,40.80
2022-12-31T05:11:56.892Z,39.83
2022-12-31T05:14:23.723Z,41.05
2022-12-31T05:16:50.780Z,39.97
2022-12-31T05:19:17.687Z,40.58
2022-12-31T05:22:04.939Z,40.33
2022-12-31T05:24:31.870Z,39.03
2022-12-31T05:26:58.793Z,38.22
2022-12-31T05:29:26.251Z,40.58
2022-12-31T05:31:53.439Z,41.88
2022-12-31T05:34:20.749Z,41.10
2022-12-31T05:36:47.571Z,41.88
2022-12-31T05:39:14.559Z,42.58
2022-12-31T05:41:41.459Z,40.83
2022-12-31T05:44:08.328Z,40.95
2022-12-31T05:46:35.304Z,42.85
2022-12-31T05:49:02.224Z,43.03
2022-12-31T05:51:29.282Z,40.50
2022-12-31T05:53:56.110Z,41.92
2022-12-31T05:56:23.177Z,40.95
2022-12-31T05:58:50.049Z,40.83
2022-12-31T06:01:17.272Z,40.67
2022-12-31T06:03:44.617Z,39.70
2022-12-31T06:06:11.671Z,39.90
2022-12-31T06:08:38.603Z,39.20
2022-12-31T06:11:06.771Z,39.40
2022-12-31T06:13:33.682Z,40.80
2022-12-31T06:16:08.609Z,40.25
2022-12-31T06:18:35.755Z,38.58
2022-12-31T06:21:04.150Z,37.92
2022-12-31T06:23:31.658Z,38.45
2022-12-31T06:26:05.292Z,39.15
2022-12-31T06:28:32.587Z,39.90
2022-12-31T06:31:01.430Z,39.92
2022-12-31T06:33:29.207Z,43.50
2022-12-31T06:35:57.984Z,40.97
2022-12-31T06:38:26.227Z,41.80
2022-12-31T06:40:53.293Z,38.58
2022-12-31T06:43:21.084Z,37.75
2022-12-31T06:45:48.185Z,35.55
2022-12-31T06:48:16.411Z,36.85
2022-12-31T06:50:43.331Z,36.30
2022-12-31T06:53:12.083Z,35.85
2022-12-31T06:55:39.129Z,35.90
2022-12-31T06:58:06.591Z,33.50
2022-12-31T07:00:33.861Z,34.90
2022-12-31T07:03:16.097Z,34.15
2022-12-31T07:05:52.464Z,33.63
2022-12-31T07:08:19.479Z,34.63
2022-12-31T07:10:54.782Z,33.20
2022-12-31T07:13:33.870Z,32.88
2022-12-31T07:16:06.966Z,33.22
2022-12-31T07:19:07.967Z,31.08
2022-12-31T07:21:38.008Z,32.35
2022-12-31T07:24:09.837Z,32.63
2022-12-31T07:26:51.147Z,34.20
2022-12-31T07:29:56.694Z,35.50
2022-12-31T07:33:08.157Z,34.30
2022-12-31T07:35:56.637Z,35.33
2022-12-31T07:38:32.746Z,39.53
2022-12-31T07:41:24.473Z,39.60
2022-12-31T07:44:11.718Z,38.88
2022-12-31T07:46:48.698Z,37.63
2022-12-31T07:49:16.062Z,37.65
2022-12-31T07:51:43.201Z,36.67
2022-12-31T07:54:14.234Z,39.05
2022-12-31T07:56:43.043Z,38.75
2022-12-31T07:59:37.935Z,42.20
2022-12-31T08:02:04.883Z,40.10
2022-12-31T08:04:52.470Z,39.50
2022-12-31T08:07:26.810Z,36.30
2022-12-31T08:10:17.963Z,38.40
2022-12-31T08:12:49.545Z,38.90
2022-12-31T08:15:19.229Z,40.90
2022-12-31T08:17:46.355Z,40.92
2022-12-31T08:20:19.401Z,40.17
2022-12-31T08:23:11.969Z,40.50
2022-12-31T08:26:06.372Z,39.75
2022-12-31T08:29:02.709Z,42.35
2022-12-31T08:31:55.749Z,39.83
2022-12-31T08:34:49.797Z,42.42
2022-12-31T08:37:37.002Z,41.25
2022-12-31T08:40:36.416Z,41.13
2022-12-31T08:43:19.984Z,38.50
2022-12-31T08:45:49.909Z,44.15
2022-12-31T08:48:31.078Z,38.10
2022-12-31T08:50:58.477Z,39.13
2022-12-31T08:53:25.989Z,30.90
2022-12-31T08:56:01.672Z,35.30
2022-12-31T08:58:59.720Z,28.73
2022-12-31T09:01:33.974Z,32.53
2022-12-31T09:04:19.575Z,31.27
2022-12-31T09:07:02.287Z,29.23
2022-12-31T09:09:50.359Z,29.08
2022-12-31T09:12:35.712Z,21.90
2022-12-31T09:15:14.948Z,23.33
2022-12-31T09:17:46.432Z,22.23
2022-12-31T09:20:20.773Z,23.75
2022-12-31T09:22:48.583Z,21.83
2022-12-31T09:25:18.106Z,24.55
2022-12-31T09:28:08.611Z,25.60
2022-12-31T09:30:50.779Z,25.55
2022-12-31T09:33:48.804Z,28.42
2022-12-31T09:36:32.180Z,26.20
2022-12-31T09:39:14.899Z,29.55
2022-12-31T09:42:01.765Z,30.95
2022-12-31T09:44:28.860Z,30.35
2022-12-31T09:47:17.532Z,28.25
2022-12-31T09:50:33.510Z,34.28
2022-12-31T09:53:19.178Z,34.55
2022-12-31T09:55:56.364Z,35.95
2022-12-31T09:59:04.588Z,38.20
2022-12-31T10:05:03.146Z,35.33
2022-12-31T10:07:54.374Z,35.50
2022-12-31T10:10:56.064Z,34.50
2022-12-31T10:13:45.989Z,35.67
2022-12-31T10:16:31.350Z,36.05
2022-12-31T10:19:24.541Z,35.55
2022-12-31T10:22:06.691Z,36.25
2022-12-31T10:24:50.715Z,34.28
2022-12-31T10:27:38.217Z,32.90
2022-12-31T10:30:19.057Z,32.95
2022-12-31T10:33:15.909Z,32.13
2022-12-31T10:35:45.925Z,30.52
2022-12-31T10:38:18.979Z,29.00
2022-12-31T10:41:23.148Z,26.27
2022-12-31T10:44:22.978Z,25.95
2022-12-31T10:46:58.883Z,21.52
2022-12-31T10:49:41.375Z,21.30
2022-12-31T10:52:38.184Z,20.95
2022-12-31T10:55:26.881Z,19.60
2022-12-31T10:58:27.777Z,21.42
2022-12-31T11:01:39.488Z,19.40
2022-12-31T11:04:18.917Z,20.70
2022-12-31T11:07:11.581Z,23.13
2022-12-31T11:09:41.473Z,19.60
2022-12-31T11:12:11.604Z,19.83
2022-12-31T11:14:38.608Z,19.58
2022-12-31T11:17:49.164Z,18.58
2022-12-31T11:20:25.017Z,20.75
2022-12-31T11:22:52.018Z,20.25
2022-12-31T11:26:14.628Z,20.73
2022-12-31T11:28:48.976Z,21.00
2022-12-31T11:31:48.797Z,22.02
2022-12-31T11:34:37.624Z,24.83
2022-12-31T11:37:29.302Z,21.73
2022-12-31T11:40:29.955Z,22.67
2022-12-31T11:43:10.940Z,23.42
2022-12-31T11:45:59.558Z,23.25
2022-12-31T11:48:36.947Z,23.17
2022-12-31T11:51:16.092Z,23.35
2022-12-31T11:54:04.163Z,38.95
2022-12-31T11:56:57.333Z,31.63
2022-12-31T11:59:24.615Z,24.30
2022-12-31T12:02:27.929Z,23.83
2022-12-31T12:05:02.677Z,24.50
2022-12-31T12:07:35.573Z,27.00
2022-12-31T12:10:07.420Z,26.05
2022-12-31T12:12:41.449Z,31.35
2022-12-31T12:15:11.527Z,29.88
2022-12-31T12:17:39.334Z,28.33
2022-12-31T12:20:29.428Z,27.35
2022-12-31T12:22:58.724Z,26.15
2022-12-31T12:25:36.088Z,29.90
2022-12-31T12:28:19.963Z,28.20
2022-12-31T12:30:54.820Z,29.20
2022-12-31T12:33:21.960Z,27.95
2022-12-31T12:35:48.932Z,27.17
2022-12-31T12:38:23.628Z,30.30
2022-12-31T12:40:59.676Z,29.25
2022-12-31T12:43:32.684Z,27.63
2022-12-31T12:46:02.532Z,28.85
2022-12-31T12:48:39.981Z,29.00
2022-12-31T12:51:31.236Z,29.27
2022-12-31T12:54:14.119Z,29.35
2022-12-31T12:56:52.159Z,27.63
2022-12-31T12:59:43.640Z,28.58
2022-12-31T13:02:19.972Z,28.45
2022-12-31T13:05:03.366Z,29.48
2022-12-31T13:07:53.518Z,28.42
2022-12-31T13:10:29.405Z,27.52
2022-12-31T13:13:24.551Z,26.75
2022-12-31T13:16:04.391Z,27.27
2022-12-31T13:18:50.144Z,28.05
2022-12-31T13:21:43.592Z,28.20
2022-12-31T13:24:39.617Z,27.13
2022-12-31T13:27:33.627Z,26.42
2022-12-31T13:30:03.423Z,27.45
2022-12-31T13:32:45.009Z,28.17
2022-12-31T13:35:33.698Z,27.13
2022-12-31T13:38:06.825Z,25.77
2022-12-31T13:40:52.584Z,24.85
2022-12-31T13:43:57.124Z,25.95
2022-12-31T13:46:42.812Z,27.25
2022-12-31T13:49:24.736Z,25.08
2022-12-31T13:52:01.348Z,25.92
2022-12-31T13:54:42.012Z,26.73
2022-12-31T13:57:36.547Z,25.88
2022-12-31T14:00:10.678Z,26.52
2022-12-31T14:02:48.015Z,27.88
2022-12-31T14:05:23.077Z,27.33
2022-12-31T14:07:59.498Z,26.38
2022-12-31T14:11:00.746Z,28.05
2022-12-31T14:13:40.207Z,28.30
2022-12-31T14:19:05.250Z,26.98
2022-12-31T14:21:53.573Z,28.75
2022-12-31T14:24:44.765Z,27.40
2022-12-31T14:27:21.043Z,26.58
2022-12-31T14:30:01.729Z,29.48
2022-12-31T14:32:55.147Z,27.25
2022-12-31T14:35:48.420Z,26.13
2022-12-31T14:38:42.192Z,26.30
2022-12-31T14:41:11.300Z,24.70
2022-12-31T14:43:46.299Z,24.92
2022-12-31T14:46:29.888Z,25.77
2022-12-31T14:49:00.505Z,24.55
2022-12-31T14:51:31.007Z,24.58
2022-12-31T14:53:58.879Z,24.42
2022-12-31T14:56:26.054Z,23.05
2022-12-31T14:59:01.501Z,27.08
2022-12-31T15:01:29.575Z,26.02
2022-12-31T15:03:58.215Z,25.75
2022-12-31T15:06:48.004Z,25.35
2022-12-31T15:09:40.833Z,25.63
2022-12-31T15:12:33.467Z,26.05
2022-12-31T15:15:25.230Z,26.27
2022-12-31T15:17:54.949Z,24.70
2022-12-31T15:20:24.762Z,27.42
2022-12-31T15:22:52.928Z,26.70
2022-12-31T15:25:25.555Z,29.65
2022-12-31T15:27:53.007Z,26.63
2022-12-31T15:30:44.438Z,25.23
2022-12-31T15:33:32.948Z,27.23
2022-12-31T15:36:18.143Z,27.27
2022-12-31T15:38:46.211Z,27.33
2022-12-31T15:41:16.960Z,27.85
2022-12-31T15:43:50.701Z,28.13
2022-12-31T15:46:22.754Z,28.77
2022-12-31T15:49:01.995Z,28.20
2022-12-31T15:51:45.383Z,28.35
2022-12-31T15:54:24.353Z,30.27
2022-12-31T15:56:54.545Z,29.90
2022-12-31T15:59:23.448Z,28.67
2022-12-31T16:01:50.700Z,28.00
2022-12-31T16:04:23.870Z,27.90
2022-12-31T16:06:52.411Z,28.05
2022-12-31T16:09:34.233Z,28.92
2022-12-31T16:12:03.806Z,30.90
2022-12-31T16:14:40.503Z,29.48
2022-12-31T16:17:21.801Z,39.35
2022-12-31T16:19:48.611Z,36.20
2022-12-31T16:22:39.802Z,30.85
2022-12-31T16:25:32.645Z,32.95
2022-12-31T16:27:55.773Z,29.85
2022-12-31T16:30:32.291Z,29.70
2022-12-31T16:33:02.462Z,29.77
2022-12-31T16:35:32.150Z,30.30
2022-12-31T16:38:03.736Z,29.48
2022-12-31T16:40:31.061Z,30.67
2022-12-31T16:42:58.072Z,31.38
2022-12-31T16:45:36.459Z,31.65
2022-12-31T16:48:17.349Z,32.13
2022-12-31T16:51:03.487Z,31.98
2022-12-31T16:53:34.595Z,32.65
2022-12-31T16:56:05.648Z,37.67
2022-12-31T16:58:36.397Z,36.10
2022-12-31T17:01:19.449Z,33.08
2022-12-31T17:03:52.053Z,34.75
2022-12-31T17:06:20.845Z,34.08
2022-12-31T17:09:15.731Z,32.03
2022-12-31T17:11:56.103Z,39.13
2022-12-31T17:14:26.927Z,37.03
2022-12-31T17:17:24.898Z,31.48
2022-12-31T17:19:57.837Z,33.40
2022-12-31T17:22:35.838Z,29.88
2022-12-31T17:25:25.733Z,29.35
2022-12-31T17:27:56.472Z,29.10
2022-12-31T17:30:38.042Z,28.30
2022-12-31T17:33:08.269Z,28.83
2022-12-31T17:35:37.662Z,28.20
2022-12-31T17:40:54.437Z,33.97
2022-12-31T17:43:23.806Z,36.40
2022-12-31T17:45:52.957Z,34.28
2022-12-31T17:48:23.117Z,34.22
2022-12-31T17:50:52.370Z,35.22
2022-12-31T17:53:19.840Z,33.33
2022-12-31T17:55:56.995Z,33.88
2022-12-31T17:58:38.455Z,33.03
2022-12-31T18:01:07.825Z,32.95
2022-12-31T18:03:35.187Z,32.75
2022-12-31T18:06:02.488Z,37.83
2022-12-31T18:08:29.473Z,37.78
2022-12-31T18:10:56.725Z,34.47
2022-12-31T18:13:25.629Z,34.05
2022-12-31T18:15:53.270Z,34.40
2022-12-31T18:18:28.894Z,31.38
2022-12-31T18:20:59.239Z,33.88
2022-12-31T18:23:35.505Z,35.40
2022-12-31T18:26:02.368Z,35.20
2022-12-31T18:28:49.233Z,34.28
2022-12-31T18:31:18.044Z,38.72
2022-12-31T18:33:46.937Z,41.05
2022-12-31T18:36:16.946Z,36.03
2022-12-31T18:38:44.053Z,33.17
2022-12-31T18:41:24.169Z,36.88
2022-12-31T18:43:51.255Z,49.67
2022-12-31T18:46:20.621Z,69.50
2022-12-31T18:48:48.189Z,64.82
2022-12-31T18:51:18.297Z,47.00
2022-12-31T18:53:45.753Z,50.63
2022-12-31T18:56:15.356Z,41.25
2022-12-31T18:58:43.333Z,39.97
2022-12-31T19:01:37.772Z,38.50
2022-12-31T19:04:11.213Z,35.33
2022-12-31T19:06:38.299Z,32.85
2022-12-31T19:09:13.288Z,30.50
2022-12-31T19:11:52.927Z,30.45
2022-12-31T19:14:24.157Z,31.77
2022-12-31T19:16:53.230Z,30.00
2022-12-31T19:19:21.045Z,31.65
2022-12-31T19:21:48.224Z,32.65
2022-12-31T19:24:16.794Z,34.83
2022-12-31T19:26:44.135Z,33.55
2022-12-31T19:29:17.799Z,34.70
2022-12-31T19:31:45.090Z,33.95
2022-12-31T19:34:12.296Z,34.55
2022-12-31T19:36:44.084Z,34.05
2022-12-31T19:39:20.556Z,37.40
2022-12-31T19:41:54.695Z,36.45
2022-12-31T19:44:26.581Z,35.72
2022-12-31T19:46:53.841Z,36.58
2022-12-31T19:49:20.825Z,35.83
2022-12-31T19:51:48.183Z,36.03
2022-12-31T19:54:15.154Z,36.65
2022-12-31T19:56:42.063Z,37.65
2022-12-31T19:59:10.931Z,35.08
2022-12-31T20:01:38.397Z,41.33
2022-12-31T20:04:05.620Z,36.95
2022-12-31T20:06:32.955Z,34.80
2022-12-31T20:09:00.131Z,36.05
2022-12-31T20:11:27.881Z,137.18
2022-12-31T20:13:55.041Z,93.50
2022-12-31T20:16:24.626Z,76.57
2022-12-31T20:18:52.266Z,81.50
2022-12-31T20:21:22.847Z,49.75
2022-12-31T20:23:51.287Z,45.53
2022-12-31T20:26:19.126Z,43.45
2022-12-31T20:28:46.794Z,43.83
2022-12-31T20:31:16.711Z,45.30
2022-12-31T20:33:44.608Z,47.30
2022-12-31T20:36:14.564Z,60.70
2022-12-31T20:38:41.598Z,69.78
2022-12-31T20:41:14.156Z,75.70
2022-12-31T20:43:41.620Z,75.80
2022-12-31T20:46:15.443Z,75.65
2022-12-31T20:48:44.356Z,76.43
2022-12-31T20:51:13.068Z,70.78
2022-12-31T20:53:45.052Z,66.18
2022-12-31T20:56:11.955Z,62.83
2022-12-31T20:58:38.888Z,64.50
2022-12-31T21:01:08.225Z,67.13
2022-12-31T21:06:28.765Z,61.65
2022-12-31T21:08:57.420Z,58.80
2022-12-31T21:11:43.524Z,58.97
2022-12-31T21:14:10.489Z,56.72
2022-12-31T21:16:37.550Z,53.63
2022-12-31T21:19:05.520Z,57.67
2022-12-31T21:21:32.785Z,52.53
2022-12-31T21:23:59.719Z,49.67
2022-12-31T21:26:26.885Z,50.10
2022-12-31T21:28:54.140Z,49.38
2022-12-31T21:31:21.314Z,50.10
2022-12-31T21:33:48.618Z,49.00
2022-12-31T21:36:16.281Z,52.88
2022-12-31T21:38:44.523Z,53.17
2022-12-31T21:41:34.151Z,57.95
2022-12-31T21:44:02.932Z,92.60
2022-12-31T21:46:30.179Z,71.55
2022-12-31T21:48:58.529Z,65.40
2022-12-31T21:51:26.046Z,64.60
2022-12-31T21:53:53.185Z,61.15
2022-12-31T21:56:21.373Z,62.85
2022-12-31T21:59:16.946Z,61.67
2022-12-31T22:02:03.188Z,58.97
2022-12-31T22:07:17.479Z,63.45
2022-12-31T22:09:44.550Z,78.25
2022-12-31T22:12:11.544Z,100.57
2022-12-31T22:14:38.457Z,103.35
2022-12-31T22:17:05.826Z,211.43
2022-12-31T22:19:43.524Z,132.18
2022-12-31T22:22:19.998Z,121.20
2022-12-31T22:24:46.915Z,113.65
2022-12-31T22:27:29.604Z,120.22
2022-12-31T22:29:56.702Z,105.57
2022-12-31T22:32:23.577Z,107.18
2022-12-31T22:34:50.422Z,105.22
2022-12-31T22:37:54.454Z,111.30
2022-12-31T22:40:04.845Z,110.93
2022-12-31T22:42:31.992Z,110.22
2022-12-31T22:44:58.874Z,106.10
2022-12-31T22:47:25.885Z,110.40
2022-12-31T22:49:52.807Z,111.22
2022-12-31T22:52:19.721Z,119.20
2022-12-31T22:54:46.680Z,120.72
2022-12-31T22:57:19.769Z,112.75
2022-12-31T22:59:47.275Z,115.15
2022-12-31T23:02:14.206Z,121.22
2022-12-31T23:04:41.401Z,125.20
2022-12-31T23:07:08.781Z,122.53
2022-12-31T23:09:54.261Z,120.47
2022-12-31T23:12:21.233Z,131.95
2022-12-31T23:15:06.680Z,134.18
2022-12-31T23:17:52.010Z,134.60
2022-12-31T23:20:41.047Z,150.77
2022-12-31T23:23:11.973Z,153.93
2022-12-31T23:25:44.158Z,146.90
2022-12-31T23:28:22.057Z,156.05
2022-12-31T23:30:54.085Z,165.25
2022-12-31T23:33:24.069Z,162.68
2022-12-31T23:36:01.088Z,175.25
2022-12-31T23:38:28.025Z,167.32
2022-12-31T23:40:54.851Z,171.45
2022-12-31T23:43:22.493Z,182.55
2022-12-31T23:45:51.254Z,183.95
2022-12-31T23:48:18.324Z,193.75
2022-12-31T23:50:50.807Z,194.40
2022-12-31T23:53:19.844Z,194.95
2022-12-31T23:55:46.691Z,192.75
2022-12-31T23:58:13.568Z,192.27
